首页
METAR-TAF:

METAR-TAF

机场 :

馬斯科吉, 奧克拉荷馬州, 美国

纬度: 35-39-25N, 经度: 095-21-35W, 海拔: 185米

当前天气观测

该预报发布于1小时和2分钟前的04:53 UTC
风速8节,风向西转西北
温度 5°C
湿度 81%
气压 1009 hPa
能見度: 16.1公里
天空无云

METAR: KMKO 260453Z AUTO 29008KT 10SM CLR 05/02 A2980 RMK AO2 SLP090 T00500022

时间: 23:55 (05:55 UTC)


TAF: 丢失

超过4000个机场的气象观测和天气预报(METAR&TAF报告)。

可查询的气象台以黄色和红色小点在地图上表示。

将鼠标移到小点上方,可查看气象台名称。

然后点击查看天气观测和预报。

如需切换地图:点击带黑十字的绿色按钮放大地图;点击带横线的绿色按钮缩小地图;或者点击绿色箭头查看邻近地区的地图。


METAR-TAF: